Time;durP1;ratioP1;P1;durP2;ratioP2;P2;SDS_P1;SDS_P2;PMS_P1;PMS_P2;Temp;Humidity;BMP_temperature;BMP_pressure;BME280_temperature;BME280_humidity;BME280_pressure;Samples;Min_cycle;Max_cycle;Signal;HPM_P1;HPM_P2
2021/09/03 00:01:05;;;;;;;36.80;27.27;;;17.70;99.90;;;;;;5059661;28;20074;-74
2021/09/03 00:03:31;;;;;;;40.83;26.77;;;17.70;99.90;;;;;;5069388;28;20043;-78
2021/09/03 00:05:59;;;;;;;34.20;27.27;;;17.70;99.90;;;;;;5069700;28;20060;-74
2021/09/03 00:08:25;;;;;;;35.83;27.27;;;17.70;99.90;;;;;;5070325;28;20036;-75
2021/09/03 00:10:51;;;;;;;45.20;26.83;;;17.60;99.90;;;;;;5069325;28;20020;-74
2021/09/03 00:13:17;;;;;;;39.72;27.42;;;17.60;99.90;;;;;;5071670;28;20025;-76
2021/09/03 00:15:44;;;;;;;34.67;27.15;;;17.60;99.90;;;;;;5067628;28;20070;-75
2021/09/03 00:18:09;;;;;;;41.13;25.98;;;17.60;99.90;;;;;;5071598;28;20021;-74
2021/09/03 00:20:35;;;;;;;33.65;24.88;;;17.60;99.90;;;;;;5067531;28;20036;-74
2021/09/03 00:23:01;;;;;;;32.33;23.83;;;17.60;99.90;;;;;;5071081;28;20020;-74
2021/09/03 00:25:27;;;;;;;37.50;26.77;;;17.50;99.90;;;;;;5070904;28;20405;-74
2021/09/03 00:27:53;;;;;;;35.40;25.38;;;17.50;99.90;;;;;;5071859;28;20032;-75
2021/09/03 00:30:18;;;;;;;35.95;23.73;;;17.40;99.90;;;;;;5069685;28;20097;-74
2021/09/03 00:32:44;;;;;;;33.42;23.02;;;17.40;99.90;;;;;;5068162;28;20024;-74
2021/09/03 00:35:10;;;;;;;34.45;24.60;;;17.40;99.90;;;;;;5071221;28;20630;-75
2021/09/03 00:37:37;;;;;;;38.47;26.35;;;17.40;99.90;;;;;;5070666;28;20082;-74
2021/09/03 00:40:04;;;;;;;30.20;23.15;;;17.40;99.90;;;;;;5070929;28;20500;-74
2021/09/03 00:42:29;;;;;;;33.42;24.75;;;17.30;99.90;;;;;;5068359;28;20040;-74
2021/09/03 00:44:55;;;;;;;32.08;22.92;;;17.40;99.90;;;;;;5069592;28;20028;-74
2021/09/03 00:47:21;;;;;;;33.28;23.63;;;17.30;99.90;;;;;;5068525;28;20028;-74
2021/09/03 00:49:47;;;;;;;29.10;23.35;;;17.30;99.90;;;;;;5070439;28;20385;-74
2021/09/03 00:52:13;;;;;;;32.25;23.55;;;17.30;99.90;;;;;;5068011;28;20027;-73
2021/09/03 00:54:39;;;;;;;31.70;22.30;;;17.30;99.90;;;;;;5067930;28;20040;-74
2021/09/03 00:57:05;;;;;;;31.83;24.92;;;17.30;99.90;;;;;;5069153;28;20032;-75
2021/09/03 00:59:31;;;;;;;36.03;23.95;;;17.30;99.90;;;;;;5073348;28;20029;-74
2021/09/03 01:01:56;;;;;;;36.30;23.92;;;17.30;99.90;;;;;;5071380;28;20070;-74
2021/09/03 01:04:22;;;;;;;34.38;24.38;;;17.20;99.90;;;;;;5066260;28;20033;-78
2021/09/03 01:06:48;;;;;;;32.47;23.60;;;17.20;99.90;;;;;;5069717;28;20024;-74
2021/09/03 01:09:14;;;;;;;38.72;25.27;;;17.20;99.90;;;;;;5069148;28;20021;-74
2021/09/03 01:11:40;;;;;;;31.80;24.85;;;17.20;99.90;;;;;;5050279;28;20024;-75
2021/09/03 01:14:05;;;;;;;30.40;23.63;;;17.20;99.90;;;;;;5071599;28;20025;-74
2021/09/03 01:16:31;;;;;;;30.60;22.48;;;17.10;99.90;;;;;;5069911;28;20052;-75
2021/09/03 01:18:58;;;;;;;34.80;26.75;;;17.10;99.90;;;;;;5071795;28;20608;-74
2021/09/03 01:21:24;;;;;;;32.38;26.33;;;17.10;99.90;;;;;;5071321;28;20013;-75
2021/09/03 01:23:50;;;;;;;32.03;24.08;;;17.10;99.90;;;;;;5071204;28;20109;-75
2021/09/03 01:26:16;;;;;;;36.50;26.17;;;17.10;99.90;;;;;;5072315;28;20024;-74
2021/09/03 01:28:41;;;;;;;30.30;24.98;;;17.00;99.90;;;;;;5070533;28;20044;-75
2021/09/03 01:31:07;;;;;;;36.53;25.92;;;17.10;99.90;;;;;;5068749;28;20028;-74
2021/09/03 01:33:33;;;;;;;33.20;25.08;;;17.00;99.90;;;;;;5070327;28;20064;-75
2021/09/03 01:35:59;;;;;;;38.30;28.67;;;17.00;99.90;;;;;;5070637;28;20021;-74
2021/09/03 01:38:24;;;;;;;35.30;24.73;;;17.00;99.90;;;;;;5070723;28;20020;-76
2021/09/03 01:40:50;;;;;;;30.02;22.98;;;17.00;99.90;;;;;;5070604;28;20044;-74
2021/09/03 01:43:16;;;;;;;33.85;25.73;;;17.00;99.90;;;;;;5067624;28;20036;-74
2021/09/03 01:45:42;;;;;;;36.63;27.55;;;16.90;99.90;;;;;;5070716;28;20056;-74
2021/09/03 01:48:07;;;;;;;34.65;25.00;;;16.90;99.90;;;;;;5070488;28;20044;-75
2021/09/03 01:50:33;;;;;;;35.20;23.77;;;16.90;99.90;;;;;;5067996;28;20029;-74
2021/09/03 01:52:59;;;;;;;31.55;22.65;;;16.90;99.90;;;;;;5070079;28;20017;-74
2021/09/03 01:55:25;;;;;;;33.83;23.40;;;16.90;99.90;;;;;;5070087;28;20166;-74
2021/09/03 01:57:51;;;;;;;34.38;23.08;;;16.80;99.90;;;;;;5071549;28;20476;-74
2021/09/03 02:00:17;;;;;;;30.17;21.63;;;16.80;99.90;;;;;;5074112;28;20048;-77
2021/09/03 02:02:42;;;;;;;32.53;25.08;;;16.80;99.90;;;;;;5073885;28;20020;-75
2021/09/03 02:05:09;;;;;;;38.92;25.45;;;16.80;99.90;;;;;;5073357;28;20393;-74
2021/09/03 02:07:35;;;;;;;29.45;23.45;;;16.80;99.90;;;;;;5073724;28;20029;-75
2021/09/03 02:10:03;;;;;;;30.98;23.80;;;16.80;99.90;;;;;;5073870;28;20066;-74
2021/09/03 02:12:28;;;;;;;32.70;23.80;;;16.70;99.90;;;;;;5070040;28;20032;-75
2021/09/03 02:14:54;;;;;;;27.83;21.52;;;16.70;99.90;;;;;;5073107;28;20020;-76
2021/09/03 02:17:20;;;;;;;27.88;20.92;;;16.70;99.90;;;;;;5072504;28;20031;-74
2021/09/03 02:19:45;;;;;;;33.53;22.92;;;16.70;99.90;;;;;;5073520;28;20528;-75
2021/09/03 02:22:11;;;;;;;28.52;21.35;;;16.60;99.90;;;;;;5073636;28;20100;-75
2021/09/03 02:24:37;;;;;;;26.55;21.20;;;16.60;99.90;;;;;;5073041;28;20041;-74
2021/09/03 02:27:02;;;;;;;28.25;21.38;;;16.60;99.90;;;;;;5073740;28;20090;-76
2021/09/03 02:29:28;;;;;;;29.65;22.60;;;16.60;99.90;;;;;;5073483;28;20085;-74
2021/09/03 02:31:54;;;;;;;30.50;22.65;;;16.60;99.90;;;;;;5071454;28;20024;-75
2021/09/03 02:34:21;;;;;;;40.13;28.08;;;16.60;99.90;;;;;;5073924;28;20048;-75
2021/09/03 02:36:47;;;;;;;45.67;30.45;;;16.60;99.90;;;;;;5069167;28;20490;-75
2021/09/03 02:39:13;;;;;;;34.70;25.08;;;16.60;99.90;;;;;;5073589;28;20027;-75
2021/09/03 02:41:38;;;;;;;36.13;25.70;;;16.50;99.90;;;;;;5078309;28;20063;-74
2021/09/03 02:44:04;;;;;;;36.85;27.27;;;16.50;99.90;;;;;;5074471;28;20603;-75
2021/09/03 02:46:30;;;;;;;34.75;25.85;;;16.50;99.90;;;;;;5074031;28;20021;-75
2021/09/03 02:48:56;;;;;;;37.67;28.52;;;16.50;99.90;;;;;;5074533;28;20028;-75
2021/09/03 02:51:21;;;;;;;39.83;27.45;;;16.50;99.90;;;;;;5072685;28;20016;-76
2021/09/03 02:53:47;;;;;;;39.20;28.58;;;16.40;99.90;;;;;;5074856;28;20164;-74
2021/09/03 02:56:13;;;;;;;39.80;27.48;;;16.40;99.90;;;;;;5074058;28;20044;-75
2021/09/03 02:58:38;;;;;;;43.05;28.55;;;16.40;99.90;;;;;;5074343;28;20024;-75
2021/09/03 03:01:04;;;;;;;40.25;28.50;;;16.40;99.90;;;;;;5073944;28;20040;-75
2021/09/03 03:03:30;;;;;;;40.45;29.95;;;16.40;99.90;;;;;;5074195;28;20108;-75
2021/09/03 03:05:55;;;;;;;35.40;26.90;;;16.40;99.90;;;;;;5070730;28;20055;-74
2021/09/03 03:08:21;;;;;;;41.08;25.85;;;16.40;99.90;;;;;;5073695;28;20031;-75
2021/09/03 03:10:47;;;;;;;34.25;27.17;;;16.30;99.90;;;;;;5071701;28;20193;-74
2021/09/03 03:13:24;;;;;;;40.13;27.65;;;16.30;99.90;;;;;;5078610;28;20050;-74
2021/09/03 03:15:51;;;;;;;35.28;25.30;;;16.30;99.90;;;;;;5058101;28;20121;-74
2021/09/03 03:18:17;;;;;;;36.78;25.20;;;16.30;99.90;;;;;;5073951;28;20024;-75
2021/09/03 03:20:44;;;;;;;36.75;25.90;;;16.20;99.90;;;;;;5073656;28;20507;-74
2021/09/03 03:23:10;;;;;;;35.50;27.40;;;16.30;99.90;;;;;;5073750;28;20040;-76
2021/09/03 03:25:36;;;;;;;41.50;29.55;;;16.20;99.90;;;;;;5073589;28;20034;-75
2021/09/03 03:28:02;;;;;;;39.95;30.85;;;16.20;99.90;;;;;;5072995;28;20028;-75
2021/09/03 03:30:28;;;;;;;40.67;28.80;;;16.20;99.90;;;;;;5073399;28;20116;-75
2021/09/03 03:32:53;;;;;;;43.92;29.35;;;16.20;99.90;;;;;;5071477;28;20464;-75
2021/09/03 03:35:19;;;;;;;36.88;27.67;;;16.10;99.90;;;;;;5069976;28;20086;-75
2021/09/03 03:37:45;;;;;;;36.33;26.58;;;16.20;99.90;;;;;;5072795;28;20094;-74
2021/09/03 03:40:11;;;;;;;35.40;25.58;;;16.10;99.90;;;;;;5072293;28;20016;-75
2021/09/03 03:42:37;;;;;;;38.75;28.95;;;16.10;99.90;;;;;;5078252;28;20062;-75
2021/09/03 03:45:03;;;;;;;39.83;28.80;;;16.10;99.90;;;;;;5072352;28;20064;-74
2021/09/03 03:47:28;;;;;;;40.65;30.33;;;16.10;99.90;;;;;;5071380;28;20021;-74
2021/09/03 03:49:54;;;;;;;42.75;28.58;;;16.10;99.90;;;;;;5072164;28;20060;-74
2021/09/03 03:52:20;;;;;;;36.92;25.52;;;16.00;99.90;;;;;;5071334;28;20020;-74
2021/09/03 03:54:45;;;;;;;32.83;23.63;;;16.00;99.90;;;;;;5073240;28;20032;-75
2021/09/03 03:57:11;;;;;;;30.48;22.73;;;16.00;99.90;;;;;;5072997;28;20028;-74
2021/09/03 03:59:37;;;;;;;35.67;25.92;;;16.00;99.90;;;;;;5072869;28;20073;-74
2021/09/03 04:02:02;;;;;;;36.67;26.08;;;15.90;99.90;;;;;;5072597;28;20036;-74
2021/09/03 04:04:28;;;;;;;34.20;24.70;;;15.90;99.90;;;;;;5072872;28;20496;-74
2021/09/03 04:06:54;;;;;;;33.30;26.02;;;15.90;99.90;;;;;;5072647;28;20090;-75
2021/09/03 04:09:19;;;;;;;37.70;26.52;;;15.80;99.90;;;;;;5072374;28;20369;-75
2021/09/03 04:11:47;;;;;;;33.15;24.65;;;15.80;99.90;;;;;;5068790;28;20016;-75
2021/09/03 04:14:13;;;;;;;33.17;26.65;;;15.80;99.90;;;;;;5072248;28;20125;-75
2021/09/03 04:16:39;;;;;;;35.42;26.00;;;15.80;99.90;;;;;;5070783;28;20504;-75
2021/09/03 04:19:05;;;;;;;36.55;24.85;;;15.70;99.90;;;;;;5072299;28;20528;-75
2021/09/03 04:21:30;;;;;;;36.85;24.95;;;15.70;99.90;;;;;;5072468;28;20099;-75
2021/09/03 04:23:56;;;;;;;35.70;27.15;;;15.70;99.90;;;;;;5073287;28;20032;-75
2021/09/03 04:26:21;;;;;;;43.15;29.67;;;15.80;99.90;;;;;;5072841;28;20028;-75
2021/09/03 04:28:47;;;;;;;35.47;26.27;;;15.70;99.90;;;;;;5072104;28;20028;-75
2021/09/03 04:31:13;;;;;;;34.63;24.50;;;15.70;99.90;;;;;;5070864;28;20527;-75
2021/09/03 04:33:39;;;;;;;35.35;28.00;;;15.70;99.90;;;;;;5072290;28;20453;-75
2021/09/03 04:36:04;;;;;;;31.77;25.13;;;15.60;99.90;;;;;;5072907;28;20025;-74
2021/09/03 04:38:31;;;;;;;33.10;23.33;;;15.60;99.90;;;;;;5065351;28;20032;-75
2021/09/03 04:40:57;;;;;;;35.85;24.67;;;15.60;99.90;;;;;;5073478;28;20052;-76
2021/09/03 04:43:23;;;;;;;32.88;25.15;;;15.60;99.90;;;;;;5074981;28;20397;-75
2021/09/03 04:45:49;;;;;;;34.65;25.30;;;15.50;99.90;;;;;;5071257;28;20012;-75
2021/09/03 04:48:15;;;;;;;36.80;25.70;;;15.50;99.90;;;;;;5071839;28;20036;-76
2021/09/03 04:50:41;;;;;;;38.80;26.92;;;15.50;99.90;;;;;;5069743;28;20021;-75
2021/09/03 04:53:07;;;;;;;36.13;24.85;;;15.40;99.90;;;;;;5072332;28;20594;-75
2021/09/03 04:55:32;;;;;;;36.08;25.90;;;15.40;99.90;;;;;;5072390;28;20111;-75
2021/09/03 04:57:58;;;;;;;36.40;24.40;;;15.50;99.90;;;;;;5072270;28;20464;-74
2021/09/03 05:00:24;;;;;;;31.83;23.73;;;15.40;99.90;;;;;;5071874;28;20024;-74
2021/09/03 05:02:50;;;;;;;34.83;25.73;;;15.40;99.90;;;;;;5072031;28;20039;-78
2021/09/03 05:05:17;;;;;;;31.08;23.73;;;15.40;99.90;;;;;;5072251;28;20555;-75
2021/09/03 05:07:43;;;;;;;31.45;23.63;;;15.40;99.90;;;;;;5053472;28;20067;-75
2021/09/03 05:10:09;;;;;;;37.30;25.25;;;15.40;99.90;;;;;;5069475;28;20036;-75
2021/09/03 05:12:36;;;;;;;38.90;28.08;;;15.30;99.90;;;;;;5072291;28;20037;-75
2021/09/03 05:15:08;;;;;;;35.95;26.48;;;15.30;99.90;;;;;;5072296;28;20552;-74
2021/09/03 05:17:34;;;;;;;37.80;26.88;;;15.30;99.90;;;;;;5071923;28;20021;-75
2021/09/03 05:19:59;;;;;;;41.92;28.48;;;15.30;99.90;;;;;;5071529;28;20031;-75
2021/09/03 05:22:25;;;;;;;37.53;26.00;;;15.30;99.90;;;;;;5072229;28;20040;-75
2021/09/03 05:24:50;;;;;;;31.67;25.50;;;15.30;99.90;;;;;;5071495;28;20059;-74
2021/09/03 05:27:16;;;;;;;33.90;22.70;;;15.30;99.90;;;;;;5070777;28;20036;-74
2021/09/03 05:29:42;;;;;;;31.77;22.48;;;15.30;99.90;;;;;;5053775;28;20023;-75
2021/09/03 05:32:08;;;;;;;31.67;23.73;;;15.20;99.90;;;;;;5069173;28;20020;-74
2021/09/03 05:34:33;;;;;;;31.25;23.20;;;15.20;99.90;;;;;;5082131;28;20362;-74
2021/09/03 05:37:00;;;;;;;29.92;23.50;;;15.30;99.90;;;;;;5080961;28;20028;-74
2021/09/03 05:39:25;;;;;;;28.90;22.60;;;15.20;99.90;;;;;;5075790;28;20039;-74
2021/09/03 05:41:51;;;;;;;32.55;22.55;;;15.20;99.90;;;;;;5080079;28;20020;-74
2021/09/03 05:44:17;;;;;;;33.72;25.00;;;15.20;99.90;;;;;;5075584;28;20089;-75
2021/09/03 05:46:42;;;;;;;30.15;22.30;;;15.20;99.90;;;;;;5081198;28;20032;-75
2021/09/03 05:49:08;;;;;;;32.25;24.17;;;15.20;99.90;;;;;;5080570;28;20020;-75
2021/09/03 05:51:34;;;;;;;32.58;24.52;;;15.20;99.90;;;;;;5073231;28;20477;-74
2021/09/03 05:54:07;;;;;;;32.08;22.73;;;15.20;99.90;;;;;;5074044;28;20023;-75
2021/09/03 05:56:32;;;;;;;26.67;19.67;;;15.20;99.90;;;;;;5075432;28;20097;-74
2021/09/03 05:58:58;;;;;;;22.48;17.67;;;15.20;99.90;;;;;;5075320;28;20021;-74
2021/09/03 06:01:24;;;;;;;26.42;19.02;;;15.20;99.90;;;;;;5076805;28;20033;-74
2021/09/03 06:03:49;;;;;;;23.55;18.10;;;15.10;99.90;;;;;;5074992;28;20028;-74
2021/09/03 06:06:15;;;;;;;24.70;17.15;;;15.20;99.90;;;;;;5075548;28;20388;-75
2021/09/03 06:08:40;;;;;;;23.15;17.17;;;15.20;99.90;;;;;;5073623;28;20078;-74
2021/09/03 06:11:06;;;;;;;21.35;17.17;;;15.10;99.90;;;;;;5071985;28;20544;-74
2021/09/03 06:13:33;;;;;;;21.58;17.17;;;15.20;99.90;;;;;;5073995;28;20059;-75
2021/09/03 06:15:59;;;;;;;27.50;20.17;;;15.20;99.90;;;;;;5071822;28;20030;-73
2021/09/03 06:18:24;;;;;;;31.45;23.67;;;15.20;99.90;;;;;;5065757;28;20014;-75
2021/09/03 06:20:50;;;;;;;28.50;22.35;;;15.20;99.90;;;;;;5074419;28;20695;-75
2021/09/03 06:23:15;;;;;;;30.20;22.55;;;15.30;99.90;;;;;;5074355;28;20024;-75
2021/09/03 06:25:41;;;;;;;27.83;20.38;;;15.30;99.90;;;;;;5074535;28;20035;-75
2021/09/03 06:28:07;;;;;;;31.08;22.23;;;15.30;99.90;;;;;;5074658;28;20020;-75
2021/09/03 06:30:32;;;;;;;30.02;22.95;;;15.30;99.90;;;;;;5072523;28;20036;-77
2021/09/03 06:32:58;;;;;;;35.90;24.42;;;15.30;99.90;;;;;;5072463;28;20025;-76
2021/09/03 06:35:24;;;;;;;35.85;26.40;;;15.30;99.90;;;;;;5074568;28;20025;-74
2021/09/03 06:37:50;;;;;;;33.28;24.65;;;15.40;99.90;;;;;;5070851;28;20026;-75
2021/09/03 06:40:16;;;;;;;37.00;27.95;;;15.40;99.90;;;;;;5052558;28;20131;-75
2021/09/03 06:42:41;;;;;;;37.92;27.05;;;15.40;99.90;;;;;;5073593;28;20085;-75
2021/09/03 06:45:09;;;;;;;40.70;28.63;;;15.40;99.90;;;;;;5068316;28;20389;-75
2021/09/03 06:47:35;;;;;;;37.42;27.33;;;15.50;99.90;;;;;;5074025;28;20024;-74
2021/09/03 06:50:02;;;;;;;40.58;31.55;;;15.50;99.90;;;;;;5074374;28;20029;-75
2021/09/03 06:52:30;;;;;;;48.33;32.22;;;15.50;99.90;;;;;;5072138;28;20027;-77
2021/09/03 06:55:01;;;;;;;39.78;29.67;;;15.50;99.90;;;;;;5063043;28;20681;-76
2021/09/03 06:57:26;;;;;;;50.90;32.47;;;15.60;99.90;;;;;;5067376;28;20039;-75
2021/09/03 06:59:52;;;;;;;48.05;34.08;;;15.60;99.90;;;;;;5065286;28;20029;-75
2021/09/03 07:02:18;;;;;;;56.47;37.65;;;15.60;99.90;;;;;;5068497;28;20025;-75
2021/09/03 07:04:44;;;;;;;52.67;35.92;;;15.60;99.90;;;;;;5073709;28;20404;-75
2021/09/03 07:07:09;;;;;;;57.05;38.08;;;15.70;99.90;;;;;;5070412;28;20095;-75
2021/09/03 07:09:35;;;;;;;60.72;39.45;;;15.70;99.90;;;;;;5073987;28;20115;-76
2021/09/03 07:12:01;;;;;;;65.05;41.20;;;15.70;99.90;;;;;;5073978;28;20025;-76
2021/09/03 07:14:26;;;;;;;64.70;41.20;;;15.80;99.90;;;;;;5066772;28;20024;-76
2021/09/03 07:16:52;;;;;;;58.95;39.63;;;15.80;99.90;;;;;;5071416;28;20028;-76
2021/09/03 07:19:19;;;;;;;61.03;39.47;;;15.90;99.90;;;;;;5075251;28;20025;-75
2021/09/03 07:21:45;;;;;;;63.53;39.97;;;16.00;99.90;;;;;;5059973;28;20108;-75
2021/09/03 07:24:11;;;;;;;61.05;41.90;;;16.00;99.90;;;;;;5071333;28;20457;-76
2021/09/03 07:26:37;;;;;;;78.15;48.33;;;16.10;99.90;;;;;;5067802;28;20428;-75
2021/09/03 07:29:05;;;;;;;64.13;44.75;;;16.20;99.90;;;;;;5067045;28;20029;-75
2021/09/03 07:31:34;;;;;;;67.93;45.30;;;16.10;99.90;;;;;;5069099;28;20024;-75
2021/09/03 07:34:00;;;;;;;66.30;47.10;;;16.20;99.90;;;;;;5075911;28;20464;-75
2021/09/03 07:36:26;;;;;;;63.15;43.85;;;16.20;99.90;;;;;;5068138;28;20021;-75
2021/09/03 07:38:52;;;;;;;66.70;43.00;;;16.30;99.90;;;;;;5069005;28;20043;-75
2021/09/03 07:41:18;;;;;;;59.65;39.60;;;16.30;99.90;;;;;;5043265;28;20032;-75
2021/09/03 07:43:43;;;;;;;73.95;48.70;;;16.50;99.90;;;;;;5046783;28;20052;-75
2021/09/03 07:46:09;;;;;;;76.38;48.80;;;16.60;99.90;;;;;;5069553;28;20423;-75
2021/09/03 07:48:35;;;;;;;68.07;45.75;;;16.70;99.90;;;;;;5071513;28;20428;-75
2021/09/03 07:51:01;;;;;;;75.55;49.03;;;16.70;99.90;;;;;;5071508;28;20465;-75
2021/09/03 07:53:27;;;;;;;69.80;46.38;;;16.80;99.90;;;;;;5058853;28;20024;-75
2021/09/03 07:55:53;;;;;;;62.03;42.65;;;16.90;99.90;;;;;;5070144;28;20032;-75
2021/09/03 07:58:18;;;;;;;78.22;48.65;;;17.00;99.90;;;;;;5071617;28;20452;-75
2021/09/03 08:00:44;;;;;;;68.95;44.55;;;17.10;99.90;;;;;;5066512;28;20114;-75
2021/09/03 08:03:10;;;;;;;66.25;44.92;;;17.20;99.90;;;;;;5066979;28;20024;-74
2021/09/03 08:05:36;;;;;;;66.18;45.25;;;17.40;99.90;;;;;;5065679;28;20432;-75
2021/09/03 08:08:03;;;;;;;66.32;44.70;;;17.50;99.90;;;;;;5058939;28;20032;-75
2021/09/03 08:10:32;;;;;;;65.32;45.75;;;17.70;99.90;;;;;;5067483;28;20078;-75
2021/09/03 08:12:59;;;;;;;67.00;44.00;;;17.80;99.90;;;;;;5053250;28;20103;-74
2021/09/03 08:15:25;;;;;;;57.35;39.92;;;17.90;99.90;;;;;;5071512;28;20477;-74
2021/09/03 08:17:51;;;;;;;55.00;41.08;;;18.00;99.90;;;;;;5070644;28;20070;-75
2021/09/03 08:20:17;;;;;;;63.50;44.08;;;18.10;99.90;;;;;;5049355;28;20381;-75
2021/09/03 08:22:42;;;;;;;58.38;40.60;;;18.20;99.90;;;;;;5071471;28;20016;-76
2021/09/03 08:25:09;;;;;;;52.17;36.28;;;18.20;99.90;;;;;;5070339;28;20036;-75
2021/09/03 08:27:35;;;;;;;57.08;36.70;;;18.20;99.90;;;;;;5070716;28;20025;-74
2021/09/03 08:30:00;;;;;;;49.90;36.42;;;18.40;99.90;;;;;;5070448;28;20031;-75
2021/09/03 08:32:26;;;;;;;53.30;38.42;;;18.50;99.90;;;;;;5063442;28;20077;-76
2021/09/03 08:34:52;;;;;;;48.95;36.13;;;18.50;99.90;;;;;;5071092;28;20047;-75
2021/09/03 08:37:18;;;;;;;45.60;35.25;;;18.70;99.90;;;;;;5069842;28;20028;-75
2021/09/03 08:39:43;;;;;;;41.88;30.98;;;18.70;99.90;;;;;;5071175;28;20028;-76
2021/09/03 08:42:10;;;;;;;42.00;29.50;;;18.90;99.90;;;;;;5071226;28;20032;-76
2021/09/03 08:44:36;;;;;;;42.60;31.60;;;19.00;99.90;;;;;;5069410;28;20059;-75
2021/09/03 08:47:02;;;;;;;42.75;28.45;;;19.00;99.90;;;;;;5070968;28;20029;-75
2021/09/03 08:49:28;;;;;;;44.08;29.00;;;19.10;99.90;;;;;;5053719;28;20055;-75
2021/09/03 08:51:54;;;;;;;41.17;29.40;;;19.20;99.90;;;;;;5071548;28;20029;-75
2021/09/03 08:54:21;;;;;;;42.97;29.77;;;19.40;99.90;;;;;;5071560;28;20025;-78
2021/09/03 08:56:47;;;;;;;38.55;28.20;;;19.50;99.90;;;;;;5071430;28;20025;-75
2021/09/03 08:59:14;;;;;;;43.20;27.88;;;19.60;99.90;;;;;;5060812;28;20373;-75
2021/09/03 09:01:39;;;;;;;35.67;25.55;;;19.70;99.90;;;;;;5069313;28;20036;-75
2021/09/03 09:04:15;;;;;;;38.65;27.50;;;19.90;99.90;;;;;;5061223;28;20068;-76
2021/09/03 09:07:01;;;;;;;40.35;27.55;;;20.00;99.90;;;;;;5067002;28;20066;-75
2021/09/03 09:09:31;;;;;;;34.05;24.77;;;20.10;99.90;;;;;;5067297;28;20080;-76
2021/09/03 09:12:06;;;;;;;36.08;25.67;;;20.10;99.90;;;;;;5074362;28;20032;-75
2021/09/03 09:14:58;;;;;;;37.47;24.88;;;20.20;99.90;;;;;;5068251;28;20029;-76
2021/09/03 09:17:41;;;;;;;34.17;25.10;;;20.40;99.90;;;;;;5048218;28;20074;-76
2021/09/03 09:20:13;;;;;;;32.70;24.25;;;20.60;99.90;;;;;;5073160;28;20021;-75
2021/09/03 09:22:59;;;;;;;34.67;23.92;;;20.70;99.90;;;;;;5075746;28;20028;-75
2021/09/03 09:25:35;;;;;;;29.50;22.55;;;20.80;99.90;;;;;;5074112;28;20161;-74
2021/09/03 09:28:21;;;;;;;35.08;23.02;;;21.00;99.90;;;;;;5062464;28;20351;-73
2021/09/03 09:30:49;;;;;;;32.78;24.55;;;21.20;99.90;;;;;;5066927;28;20028;-73
2021/09/03 09:33:23;;;;;;;30.70;23.35;;;21.30;99.90;;;;;;5066207;28;20020;-76
2021/09/03 09:35:56;;;;;;;29.08;21.85;;;21.50;99.90;;;;;;5071709;28;20039;-73
2021/09/03 09:38:23;;;;;;;27.80;21.50;;;21.60;99.90;;;;;;5053570;28;20021;-73
2021/09/03 09:40:57;;;;;;;29.27;22.10;;;21.70;99.90;;;;;;5075656;28;20085;-72
2021/09/03 09:43:26;;;;;;;29.55;20.92;;;21.80;99.90;;;;;;5069086;28;20024;-72
2021/09/03 09:46:10;;;;;;;25.58;20.27;;;22.00;99.90;;;;;;5067065;28;20503;-72
2021/09/03 09:49:03;;;;;;;29.20;21.20;;;22.20;99.90;;;;;;5070074;28;20028;-74
2021/09/03 09:51:47;;;;;;;23.70;18.83;;;22.30;99.90;;;;;;5067475;28;20029;-73
2021/09/03 09:54:14;;;;;;;26.40;18.52;;;22.40;99.90;;;;;;5074593;28;20116;-73
2021/09/03 09:56:50;;;;;;;24.88;18.02;;;22.60;99.90;;;;;;5070823;28;20028;-72
2021/09/03 09:59:17;;;;;;;24.88;16.90;;;22.70;99.90;;;;;;5071217;28;21997;-72
2021/09/03 10:01:45;;;;;;;25.30;17.60;;;22.70;99.90;;;;;;5068899;28;20497;-72
2021/09/03 10:04:13;;;;;;;22.70;17.95;;;22.80;99.90;;;;;;5067256;28;20032;-72
2021/09/03 10:06:41;;;;;;;22.17;18.70;;;23.00;99.90;;;;;;5072954;28;20050;-72
2021/09/03 10:09:09;;;;;;;25.60;19.75;;;23.10;99.90;;;;;;5073240;28;20031;-72
2021/09/03 10:11:40;;;;;;;22.55;17.77;;;23.20;99.90;;;;;;5065154;28;20431;-74
2021/09/03 10:14:08;;;;;;;26.02;18.42;;;23.30;99.90;;;;;;5068076;28;20027;-74
2021/09/03 10:16:34;;;;;;;21.10;17.05;;;23.30;99.90;;;;;;5069371;28;20017;-71
2021/09/03 10:19:02;;;;;;;20.95;16.98;;;23.40;99.90;;;;;;5066677;28;20365;-72
2021/09/03 10:21:34;;;;;;;25.50;20.38;;;23.50;99.90;;;;;;5061284;28;20045;-72
2021/09/03 10:24:15;;;;;;;23.67;18.80;;;23.50;99.90;;;;;;5034140;28;20029;-71
2021/09/03 10:26:46;;;;;;;23.05;17.15;;;23.80;99.90;;;;;;5026348;28;20028;-72
2021/09/03 10:29:18;;;;;;;25.52;17.70;;;23.80;99.90;;;;;;5067964;28;20020;-74
2021/09/03 10:32:10;;;;;;;23.70;16.47;;;23.90;99.90;;;;;;5063067;28;20041;-75
2021/09/03 10:34:39;;;;;;;24.60;15.87;;;24.00;99.90;;;;;;5072970;28;20024;-72
2021/09/03 10:37:18;;;;;;;20.83;17.52;;;24.10;99.90;;;;;;5063575;28;20029;-72
2021/09/03 10:40:05;;;;;;;18.60;14.85;;;24.10;99.90;;;;;;5069961;28;20385;-74
2021/09/03 10:42:45;;;;;;;21.48;14.63;;;24.20;99.90;;;;;;5052104;28;20473;-75
2021/09/03 10:45:17;;;;;;;18.00;12.80;;;24.40;99.90;;;;;;5065970;28;20126;-75
2021/09/03 10:47:46;;;;;;;16.77;12.07;;;24.40;99.90;;;;;;5068616;28;20029;-75
2021/09/03 10:50:21;;;;;;;16.63;12.38;;;24.60;99.90;;;;;;5053659;28;20017;-75
2021/09/03 10:53:02;;;;;;;15.63;12.57;;;24.60;99.90;;;;;;5072981;28;20036;-75
2021/09/03 10:55:46;;;;;;;19.67;15.15;;;24.60;99.90;;;;;;5073233;28;20025;-75
2021/09/03 10:58:31;;;;;;;21.35;13.48;;;24.60;99.90;;;;;;5073662;28;20033;-75
2021/09/03 11:01:12;;;;;;;17.42;12.68;;;24.60;99.90;;;;;;5048822;28;20056;-76
2021/09/03 11:04:15;;;;;;;13.50;10.55;;;24.70;99.90;;;;;;5073456;28;20567;-75
2021/09/03 11:06:50;;;;;;;16.23;11.20;;;24.80;99.90;;;;;;5052112;28;20034;-75
2021/09/03 11:09:16;;;;;;;14.35;11.48;;;24.90;99.90;;;;;;5071992;28;20021;-78
2021/09/03 11:12:05;;;;;;;16.45;12.65;;;25.00;99.90;;;;;;5068650;28;20065;-75
2021/09/03 11:14:31;;;;;;;22.17;14.35;;;25.10;99.90;;;;;;5059240;28;20064;-74
2021/09/03 11:17:11;;;;;;;16.42;11.70;;;25.20;99.90;;;;;;5072893;28;20025;-75
2021/09/03 11:19:37;;;;;;;18.50;13.00;;;25.20;99.90;;;;;;5050396;28;20021;-75
2021/09/03 11:22:07;;;;;;;17.02;12.88;;;25.20;99.90;;;;;;5070419;28;20370;-75
2021/09/03 11:24:47;;;;;;;18.75;13.13;;;25.30;99.90;;;;;;5072280;28;20043;-74
2021/09/03 11:27:16;;;;;;;17.75;12.43;;;25.40;99.90;;;;;;5053610;28;20015;-75
2021/09/03 11:29:49;;;;;;;17.50;12.82;;;25.40;99.90;;;;;;5074317;28;20024;-75
2021/09/03 11:32:20;;;;;;;18.38;13.90;;;25.50;99.90;;;;;;5064908;28;20029;-75
2021/09/03 11:34:57;;;;;;;16.40;11.75;;;25.50;99.90;;;;;;5071990;28;20500;-76
2021/09/03 11:37:27;;;;;;;19.73;11.85;;;25.50;99.90;;;;;;5072339;28;20032;-75
2021/09/03 11:40:00;;;;;;;14.80;10.50;;;25.60;99.90;;;;;;5072418;28;20078;-75
2021/09/03 11:42:31;;;;;;;13.70;10.40;;;25.70;99.90;;;;;;5072183;28;20052;-75
2021/09/03 11:45:04;;;;;;;30.60;10.93;;;25.70;99.90;;;;;;5062251;28;20028;-75
2021/09/03 11:47:32;;;;;;;14.13;11.63;;;25.70;99.90;;;;;;5067591;28;20037;-75
2021/09/03 11:49:59;;;;;;;14.82;10.57;;;25.70;99.90;;;;;;5072099;28;20051;-75
2021/09/03 11:52:30;;;;;;;13.60;10.32;;;25.80;99.90;;;;;;5072347;28;20021;-75
2021/09/03 11:54:56;;;;;;;14.88;10.30;;;26.10;99.90;;;;;;5070224;28;20123;-75
2021/09/03 11:57:22;;;;;;;13.95;9.77;;;26.00;99.90;;;;;;5070319;28;20508;-75
2021/09/03 11:59:56;;;;;;;11.60;10.18;;;26.00;99.90;;;;;;5072121;28;20032;-75
2021/09/03 12:02:23;;;;;;;14.43;10.63;;;26.00;99.90;;;;;;5067813;28;20602;-75
2021/09/03 12:04:49;;;;;;;14.75;10.18;;;26.10;99.90;;;;;;5053924;28;20040;-75
2021/09/03 12:07:19;;;;;;;14.70;11.20;;;26.00;99.90;;;;;;5072199;28;20024;-75
2021/09/03 12:09:45;;;;;;;15.43;11.13;;;26.00;99.90;;;;;;5071211;28;20485;-76
2021/09/03 12:12:11;;;;;;;16.33;10.73;;;26.00;99.90;;;;;;5070356;28;20071;-75
2021/09/03 12:14:37;;;;;;;14.00;10.68;;;26.10;99.90;;;;;;5071837;28;20028;-74
2021/09/03 12:17:03;;;;;;;11.00;9.32;;;26.20;99.90;;;;;;5071225;28;20434;-75
2021/09/03 12:19:29;;;;;;;11.90;8.75;;;26.30;99.90;;;;;;5071697;28;20039;-74
2021/09/03 12:21:55;;;;;;;10.32;8.65;;;26.40;99.90;;;;;;5049706;28;20099;-74
2021/09/03 12:24:22;;;;;;;13.40;8.65;;;26.60;99.90;;;;;;5052985;28;20485;-74
2021/09/03 12:26:56;;;;;;;10.20;8.23;;;26.70;99.90;;;;;;5068090;28;20035;-75
2021/09/03 12:29:24;;;;;;;10.95;8.43;;;26.60;99.90;;;;;;5069260;28;20044;-75
2021/09/03 12:31:52;;;;;;;12.02;8.05;;;26.60;99.90;;;;;;5078328;28;20024;-75